sensor_id;sensor_type;location;lat;lon;timestamp;temperature;humidity
30459;DHT22;17254;50.976;7.034;2023-06-05T00:00:06;13.80;25.90
30459;DHT22;17254;50.976;7.034;2023-06-05T00:00:18;13.80;25.80
30459;DHT22;17254;50.976;7.034;2023-06-05T00:00:24;13.80;25.70
30459;DHT22;17254;50.976;7.034;2023-06-05T00:00:30;13.80;25.60
30459;DHT22;17254;50.976;7.034;2023-06-05T00:00:36;13.70;25.40
30459;DHT22;17254;50.976;7.034;2023-06-05T00:00:42;13.70;25.40
30459;DHT22;17254;50.976;7.034;2023-06-05T00:00:48;13.70;25.30
30459;DHT22;17254;50.976;7.034;2023-06-05T00:00:55;13.70;25.30
30459;DHT22;17254;50.976;7.034;2023-06-05T00:01:01;13.70;25.30
30459;DHT22;17254;50.976;7.034;2023-06-05T00:01:07;13.70;25.30
30459;DHT22;17254;50.976;7.034;2023-06-05T00:01:15;13.70;25.30
30459;DHT22;17254;50.976;7.034;2023-06-05T00:01:21;13.60;25.30
30459;DHT22;17254;50.976;7.034;2023-06-05T00:01:27;13.70;25.40
30459;DHT22;17254;50.976;7.034;2023-06-05T00:01:32;13.60;25.40
30459;DHT22;17254;50.976;7.034;2023-06-05T00:01:39;13.60;25.40
30459;DHT22;17254;50.976;7.034;2023-06-05T00:01:45;13.60;25.50
30459;DHT22;17254;50.976;7.034;2023-06-05T00:01:51;13.60;25.70
30459;DHT22;17254;50.976;7.034;2023-06-05T00:01:57;13.60;25.90
30459;DHT22;17254;50.976;7.034;2023-06-05T00:02:04;13.60;26.10
30459;DHT22;17254;50.976;7.034;2023-06-05T00:02:10;13.60;26.30
30459;DHT22;17254;50.976;7.034;2023-06-05T00:02:16;13.60;26.50
30459;DHT22;17254;50.976;7.034;2023-06-05T00:02:23;13.60;26.50
30459;DHT22;17254;50.976;7.034;2023-06-05T00:02:32;13.60;26.60
30459;DHT22;17254;50.976;7.034;2023-06-05T00:02:38;13.60;26.50
30459;DHT22;17254;50.976;7.034;2023-06-05T00:02:44;13.60;26.50
30459;DHT22;17254;50.976;7.034;2023-06-05T00:02:50;13.60;26.40
30459;DHT22;17254;50.976;7.034;2023-06-05T00:02:55;13.60;26.40
30459;DHT22;17254;50.976;7.034;2023-06-05T00:03:02;13.60;26.40
30459;DHT22;17254;50.976;7.034;2023-06-05T00:03:08;13.60;26.40
30459;DHT22;17254;50.976;7.034;2023-06-05T00:03:14;13.60;26.40
30459;DHT22;17254;50.976;7.034;2023-06-05T00:03:19;13.50;26.30
30459;DHT22;17254;50.976;7.034;2023-06-05T00:03:26;13.50;26.30
30459;DHT22;17254;50.976;7.034;2023-06-05T00:03:32;13.50;26.40
30459;DHT22;17254;50.976;7.034;2023-06-05T00:03:39;13.50;26.70
30459;DHT22;17254;50.976;7.034;2023-06-05T00:03:45;13.50;26.80
30459;DHT22;17254;50.976;7.034;2023-06-05T00:03:52;13.50;27.00
30459;DHT22;17254;50.976;7.034;2023-06-05T00:03:58;13.60;27.10
30459;DHT22;17254;50.976;7.034;2023-06-05T00:04:05;13.50;27.10
30459;DHT22;17254;50.976;7.034;2023-06-05T00:04:11;13.50;27.10
30459;DHT22;17254;50.976;7.034;2023-06-05T00:04:17;13.50;27.10
30459;DHT22;17254;50.976;7.034;2023-06-05T00:04:23;13.50;27.20
30459;DHT22;17254;50.976;7.034;2023-06-05T00:04:30;13.50;27.20
30459;DHT22;17254;50.976;7.034;2023-06-05T00:04:36;13.50;27.20
30459;DHT22;17254;50.976;7.034;2023-06-05T00:04:41;13.50;27.30
30459;DHT22;17254;50.976;7.034;2023-06-05T00:04:49;13.50;27.40
30459;DHT22;17254;50.976;7.034;2023-06-05T00:04:55;13.50;27.40
30459;DHT22;17254;50.976;7.034;2023-06-05T00:05:01;13.50;27.40
30459;DHT22;17254;50.976;7.034;2023-06-05T00:05:09;13.50;27.50
30459;DHT22;17254;50.976;7.034;2023-06-05T00:05:15;13.50;27.60
30459;DHT22;17254;50.976;7.034;2023-06-05T00:05:23;13.50;27.50
30459;DHT22;17254;50.976;7.034;2023-06-05T00:05:31;13.50;27.50
30459;DHT22;17254;50.976;7.034;2023-06-05T00:05:37;13.50;27.50
30459;DHT22;17254;50.976;7.034;2023-06-05T00:05:44;13.50;27.40
30459;DHT22;17254;50.976;7.034;2023-06-05T00:05:50;13.50;27.50
30459;DHT22;17254;50.976;7.034;2023-06-05T00:05:56;13.40;27.50
30459;DHT22;17254;50.976;7.034;2023-06-05T00:06:02;13.40;27.70
30459;DHT22;17254;50.976;7.034;2023-06-05T00:06:08;13.40;28.00
30459;DHT22;17254;50.976;7.034;2023-06-05T00:06:14;13.40;28.30
30459;DHT22;17254;50.976;7.034;2023-06-05T00:06:20;13.40;28.40
30459;DHT22;17254;50.976;7.034;2023-06-05T00:06:26;13.40;28.50
30459;DHT22;17254;50.976;7.034;2023-06-05T00:06:32;13.40;28.70
30459;DHT22;17254;50.976;7.034;2023-06-05T00:06:40;13.50;28.80
30459;DHT22;17254;50.976;7.034;2023-06-05T00:06:46;13.50;29.20
30459;DHT22;17254;50.976;7.034;2023-06-05T00:06:51;13.50;28.80
30459;DHT22;17254;50.976;7.034;2023-06-05T00:06:57;13.50;29.20
30459;DHT22;17254;50.976;7.034;2023-06-05T00:07:04;13.50;28.70
30459;DHT22;17254;50.976;7.034;2023-06-05T00:07:10;13.50;28.50
30459;DHT22;17254;50.976;7.034;2023-06-05T00:07:16;13.60;28.50
30459;DHT22;17254;50.976;7.034;2023-06-05T00:07:22;13.60;28.50
30459;DHT22;17254;50.976;7.034;2023-06-05T00:07:29;13.50;28.50
30459;DHT22;17254;50.976;7.034;2023-06-05T00:07:36;13.60;28.50
30459;DHT22;17254;50.976;7.034;2023-06-05T00:07:43;13.60;28.50
30459;DHT22;17254;50.976;7.034;2023-06-05T00:07:49;13.60;28.50
30459;DHT22;17254;50.976;7.034;2023-06-05T00:07:55;13.60;28.50
30459;DHT22;17254;50.976;7.034;2023-06-05T00:08:01;13.60;28.50
30459;DHT22;17254;50.976;7.034;2023-06-05T00:08:07;13.60;28.60
30459;DHT22;17254;50.976;7.034;2023-06-05T00:08:14;13.60;28.60
30459;DHT22;17254;50.976;7.034;2023-06-05T00:08:20;13.60;28.70
30459;DHT22;17254;50.976;7.034;2023-06-05T00:08:26;13.60;28.80
30459;DHT22;17254;50.976;7.034;2023-06-05T00:08:32;13.60;28.90
30459;DHT22;17254;50.976;7.034;2023-06-05T00:08:38;13.60;28.90
30459;DHT22;17254;50.976;7.034;2023-06-05T00:08:44;13.60;29.00
30459;DHT22;17254;50.976;7.034;2023-06-05T00:08:50;13.60;29.00
30459;DHT22;17254;50.976;7.034;2023-06-05T00:08:57;13.60;29.00
30459;DHT22;17254;50.976;7.034;2023-06-05T00:09:03;13.60;28.90
30459;DHT22;17254;50.976;7.034;2023-06-05T00:09:09;13.60;29.00
30459;DHT22;17254;50.976;7.034;2023-06-05T00:09:18;13.60;28.90
30459;DHT22;17254;50.976;7.034;2023-06-05T00:09:24;13.60;28.80
30459;DHT22;17254;50.976;7.034;2023-06-05T00:09:30;13.60;28.80
30459;DHT22;17254;50.976;7.034;2023-06-05T00:09:36;13.60;28.80
30459;DHT22;17254;50.976;7.034;2023-06-05T00:09:42;13.60;28.80
30459;DHT22;17254;50.976;7.034;2023-06-05T00:09:48;13.60;28.80
30459;DHT22;17254;50.976;7.034;2023-06-05T00:09:54;13.60;28.80
30459;DHT22;17254;50.976;7.034;2023-06-05T00:10:00;13.60;28.80
30459;DHT22;17254;50.976;7.034;2023-06-05T00:10:06;13.60;28.90
30459;DHT22;17254;50.976;7.034;2023-06-05T00:10:13;13.60;28.90
30459;DHT22;17254;50.976;7.034;2023-06-05T00:10:19;13.60;29.00
30459;DHT22;17254;50.976;7.034;2023-06-05T00:10:25;13.60;29.10
30459;DHT22;17254;50.976;7.034;2023-06-05T00:10:31;13.60;29.10
30459;DHT22;17254;50.976;7.034;2023-06-05T00:10:37;13.60;29.60
30459;DHT22;17254;50.976;7.034;2023-06-05T00:10:44;13.60;29.10
30459;DHT22;17254;50.976;7.034;2023-06-05T00:10:50;13.60;29.00
30459;DHT22;17254;50.976;7.034;2023-06-05T00:10:56;13.60;29.00
30459;DHT22;17254;50.976;7.034;2023-06-05T00:11:03;13.50;28.90
30459;DHT22;17254;50.976;7.034;2023-06-05T00:11:09;13.60;29.30
30459;DHT22;17254;50.976;7.034;2023-06-05T00:11:15;13.50;28.90
30459;DHT22;17254;50.976;7.034;2023-06-05T00:11:22;13.60;28.90
30459;DHT22;17254;50.976;7.034;2023-06-05T00:11:28;13.60;28.90
30459;DHT22;17254;50.976;7.034;2023-06-05T00:11:34;13.50;28.90
30459;DHT22;17254;50.976;7.034;2023-06-05T00:11:40;13.50;28.90
30459;DHT22;17254;50.976;7.034;2023-06-05T00:11:46;13.50;29.30
30459;DHT22;17254;50.976;7.034;2023-06-05T00:11:52;13.50;28.90
30459;DHT22;17254;50.976;7.034;2023-06-05T00:11:58;13.50;28.80
30459;DHT22;17254;50.976;7.034;2023-06-05T00:12:04;13.50;28.70
30459;DHT22;17254;50.976;7.034;2023-06-05T00:12:10;13.50;28.60
30459;DHT22;17254;50.976;7.034;2023-06-05T00:12:17;13.50;29.00
30459;DHT22;17254;50.976;7.034;2023-06-05T00:12:23;13.50;28.50
30459;DHT22;17254;50.976;7.034;2023-06-05T00:12:29;13.50;28.60
30459;DHT22;17254;50.976;7.034;2023-06-05T00:12:36;13.50;28.60
30459;DHT22;17254;50.976;7.034;2023-06-05T00:12:42;13.50;28.70
30459;DHT22;17254;50.976;7.034;2023-06-05T00:12:49;13.50;28.70
30459;DHT22;17254;50.976;7.034;2023-06-05T00:12:55;13.50;28.70
30459;DHT22;17254;50.976;7.034;2023-06-05T00:13:02;13.50;28.80
30459;DHT22;17254;50.976;7.034;2023-06-05T00:13:08;13.50;28.90
30459;DHT22;17254;50.976;7.034;2023-06-05T00:13:14;13.50;28.90
30459;DHT22;17254;50.976;7.034;2023-06-05T00:13:21;13.50;29.00
30459;DHT22;17254;50.976;7.034;2023-06-05T00:13:27;13.50;29.00
30459;DHT22;17254;50.976;7.034;2023-06-05T00:13:33;13.50;28.90
30459;DHT22;17254;50.976;7.034;2023-06-05T00:13:39;13.40;28.90
30459;DHT22;17254;50.976;7.034;2023-06-05T00:13:46;13.40;28.80
30459;DHT22;17254;50.976;7.034;2023-06-05T00:13:52;13.50;28.90
30459;DHT22;17254;50.976;7.034;2023-06-05T00:13:58;13.50;29.00
30459;DHT22;17254;50.976;7.034;2023-06-05T00:14:05;13.40;28.90
30459;DHT22;17254;50.976;7.034;2023-06-05T00:14:11;13.40;28.90
30459;DHT22;17254;50.976;7.034;2023-06-05T00:14:17;13.40;28.90
30459;DHT22;17254;50.976;7.034;2023-06-05T00:14:23;13.40;28.80
30459;DHT22;17254;50.976;7.034;2023-06-05T00:14:29;13.40;28.80
30459;DHT22;17254;50.976;7.034;2023-06-05T00:14:35;13.40;28.70
30459;DHT22;17254;50.976;7.034;2023-06-05T00:14:43;13.40;28.80
30459;DHT22;17254;50.976;7.034;2023-06-05T00:14:49;13.40;28.90
30459;DHT22;17254;50.976;7.034;2023-06-05T00:14:56;13.40;28.80
30459;DHT22;17254;50.976;7.034;2023-06-05T00:15:03;13.40;28.80
30459;DHT22;17254;50.976;7.034;2023-06-05T00:15:10;13.40;28.80
30459;DHT22;17254;50.976;7.034;2023-06-05T00:15:16;13.40;28.90
30459;DHT22;17254;50.976;7.034;2023-06-05T00:15:22;13.40;28.90
30459;DHT22;17254;50.976;7.034;2023-06-05T00:15:28;13.40;28.80
30459;DHT22;17254;50.976;7.034;2023-06-05T00:15:36;13.30;28.80
30459;DHT22;17254;50.976;7.034;2023-06-05T00:15:43;13.30;28.90
30459;DHT22;17254;50.976;7.034;2023-06-05T00:15:49;13.30;28.90
30459;DHT22;17254;50.976;7.034;2023-06-05T00:15:56;13.30;29.00
30459;DHT22;17254;50.976;7.034;2023-06-05T00:16:03;13.30;29.00
30459;DHT22;17254;50.976;7.034;2023-06-05T00:16:09;13.30;29.10
30459;DHT22;17254;50.976;7.034;2023-06-05T00:16:16;13.30;29.20
30459;DHT22;17254;50.976;7.034;2023-06-05T00:16:22;13.30;29.30
30459;DHT22;17254;50.976;7.034;2023-06-05T00:16:28;13.30;29.30
30459;DHT22;17254;50.976;7.034;2023-06-05T00:16:34;13.30;29.30
30459;DHT22;17254;50.976;7.034;2023-06-05T00:16:41;13.30;29.40
30459;DHT22;17254;50.976;7.034;2023-06-05T00:16:47;13.40;29.40
30459;DHT22;17254;50.976;7.034;2023-06-05T00:16:55;13.30;29.30
30459;DHT22;17254;50.976;7.034;2023-06-05T00:17:03;13.30;29.20
30459;DHT22;17254;50.976;7.034;2023-06-05T00:17:09;13.40;29.20
30459;DHT22;17254;50.976;7.034;2023-06-05T00:17:16;13.30;29.10
30459;DHT22;17254;50.976;7.034;2023-06-05T00:17:23;13.40;29.10
30459;DHT22;17254;50.976;7.034;2023-06-05T00:17:30;13.40;29.10
30459;DHT22;17254;50.976;7.034;2023-06-05T00:17:36;13.40;29.10
30459;DHT22;17254;50.976;7.034;2023-06-05T00:17:42;13.40;29.20
30459;DHT22;17254;50.976;7.034;2023-06-05T00:17:51;13.40;29.30
30459;DHT22;17254;50.976;7.034;2023-06-05T00:17:58;13.40;29.30
30459;DHT22;17254;50.976;7.034;2023-06-05T00:18:04;13.40;29.20
30459;DHT22;17254;50.976;7.034;2023-06-05T00:18:11;13.40;29.20
30459;DHT22;17254;50.976;7.034;2023-06-05T00:18:17;13.40;29.20
30459;DHT22;17254;50.976;7.034;2023-06-05T00:18:23;13.40;29.30
30459;DHT22;17254;50.976;7.034;2023-06-05T00:18:30;13.50;29.30
30459;DHT22;17254;50.976;7.034;2023-06-05T00:18:36;13.40;29.20
30459;DHT22;17254;50.976;7.034;2023-06-05T00:18:43;13.50;29.20
30459;DHT22;17254;50.976;7.034;2023-06-05T00:18:50;13.40;29.20
30459;DHT22;17254;50.976;7.034;2023-06-05T00:18:56;13.40;29.10
30459;DHT22;17254;50.976;7.034;2023-06-05T00:19:03;13.50;29.10
30459;DHT22;17254;50.976;7.034;2023-06-05T00:19:09;13.40;29.00
30459;DHT22;17254;50.976;7.034;2023-06-05T00:19:15;13.40;28.90
30459;DHT22;17254;50.976;7.034;2023-06-05T00:19:21;13.40;28.90
30459;DHT22;17254;50.976;7.034;2023-06-05T00:19:27;13.40;29.00
30459;DHT22;17254;50.976;7.034;2023-06-05T00:19:35;13.50;29.10
30459;DHT22;17254;50.976;7.034;2023-06-05T00:19:41;13.40;29.10
30459;DHT22;17254;50.976;7.034;2023-06-05T00:19:47;13.40;29.20
30459;DHT22;17254;50.976;7.034;2023-06-05T00:19:53;13.50;29.20
30459;DHT22;17254;50.976;7.034;2023-06-05T00:19:59;13.50;29.20
30459;DHT22;17254;50.976;7.034;2023-06-05T00:20:07;13.50;29.60
30459;DHT22;17254;50.976;7.034;2023-06-05T00:20:15;13.50;29.20
30459;DHT22;17254;50.976;7.034;2023-06-05T00:20:21;13.50;29.10
30459;DHT22;17254;50.976;7.034;2023-06-05T00:20:26;13.50;29.00
30459;DHT22;17254;50.976;7.034;2023-06-05T00:20:32;13.50;29.00
30459;DHT22;17254;50.976;7.034;2023-06-05T00:20:38;13.50;29.00
30459;DHT22;17254;50.976;7.034;2023-06-05T00:20:44;13.50;29.10
30459;DHT22;17254;50.976;7.034;2023-06-05T00:20:50;13.50;29.20
30459;DHT22;17254;50.976;7.034;2023-06-05T00:20:56;13.50;29.20
30459;DHT22;17254;50.976;7.034;2023-06-05T00:21:02;13.50;29.20
30459;DHT22;17254;50.976;7.034;2023-06-05T00:21:09;13.50;29.10
30459;DHT22;17254;50.976;7.034;2023-06-05T00:21:16;13.50;29.10
30459;DHT22;17254;50.976;7.034;2023-06-05T00:21:22;13.50;29.10
30459;DHT22;17254;50.976;7.034;2023-06-05T00:21:28;13.50;29.20
30459;DHT22;17254;50.976;7.034;2023-06-05T00:21:35;13.50;29.30
30459;DHT22;17254;50.976;7.034;2023-06-05T00:21:41;13.50;29.30
30459;DHT22;17254;50.976;7.034;2023-06-05T00:21:47;13.50;29.40
30459;DHT22;17254;50.976;7.034;2023-06-05T00:21:56;13.50;29.40
30459;DHT22;17254;50.976;7.034;2023-06-05T00:22:03;13.50;29.30
30459;DHT22;17254;50.976;7.034;2023-06-05T00:22:09;13.50;29.30
30459;DHT22;17254;50.976;7.034;2023-06-05T00:22:17;13.50;29.30
30459;DHT22;17254;50.976;7.034;2023-06-05T00:22:23;13.50;29.30
30459;DHT22;17254;50.976;7.034;2023-06-05T00:22:30;13.50;29.30
30459;DHT22;17254;50.976;7.034;2023-06-05T00:22:37;13.50;29.20
30459;DHT22;17254;50.976;7.034;2023-06-05T00:22:44;13.50;29.20
30459;DHT22;17254;50.976;7.034;2023-06-05T00:22:50;13.50;29.30
30459;DHT22;17254;50.976;7.034;2023-06-05T00:22:57;13.50;29.40
30459;DHT22;17254;50.976;7.034;2023-06-05T00:23:03;13.50;29.50
30459;DHT22;17254;50.976;7.034;2023-06-05T00:23:09;13.50;29.50
30459;DHT22;17254;50.976;7.034;2023-06-05T00:23:16;13.50;29.50
30459;DHT22;17254;50.976;7.034;2023-06-05T00:23:22;13.50;29.60
30459;DHT22;17254;50.976;7.034;2023-06-05T00:23:28;13.50;29.60
30459;DHT22;17254;50.976;7.034;2023-06-05T00:23:34;13.50;29.60
30459;DHT22;17254;50.976;7.034;2023-06-05T00:23:41;13.50;29.70
30459;DHT22;17254;50.976;7.034;2023-06-05T00:23:47;13.50;29.80
30459;DHT22;17254;50.976;7.034;2023-06-05T00:23:53;13.50;29.90
30459;DHT22;17254;50.976;7.034;2023-06-05T00:23:59;13.40;29.90
30459;DHT22;17254;50.976;7.034;2023-06-05T00:24:06;13.50;29.90
30459;DHT22;17254;50.976;7.034;2023-06-05T00:24:12;13.50;29.90
30459;DHT22;17254;50.976;7.034;2023-06-05T00:24:18;13.50;30.00
30459;DHT22;17254;50.976;7.034;2023-06-05T00:24:24;13.50;30.00
30459;DHT22;17254;50.976;7.034;2023-06-05T00:24:31;13.40;29.90
30459;DHT22;17254;50.976;7.034;2023-06-05T00:24:37;13.40;30.00
30459;DHT22;17254;50.976;7.034;2023-06-05T00:24:44;13.40;30.00
30459;DHT22;17254;50.976;7.034;2023-06-05T00:24:50;13.40;30.00
30459;DHT22;17254;50.976;7.034;2023-06-05T00:24:57;13.40;30.10
30459;DHT22;17254;50.976;7.034;2023-06-05T00:25:03;13.40;30.10
30459;DHT22;17254;50.976;7.034;2023-06-05T00:25:10;13.40;30.10
30459;DHT22;17254;50.976;7.034;2023-06-05T00:25:16;13.40;30.20
30459;DHT22;17254;50.976;7.034;2023-06-05T00:25:22;13.40;30.30
30459;DHT22;17254;50.976;7.034;2023-06-05T00:25:28;13.40;30.30
30459;DHT22;17254;50.976;7.034;2023-06-05T00:25:33;13.40;30.40
30459;DHT22;17254;50.976;7.034;2023-06-05T00:25:40;13.40;30.40
30459;DHT22;17254;50.976;7.034;2023-06-05T00:25:46;13.40;30.50
30459;DHT22;17254;50.976;7.034;2023-06-05T00:25:52;13.40;30.50
30459;DHT22;17254;50.976;7.034;2023-06-05T00:25:58;13.40;30.50
30459;DHT22;17254;50.976;7.034;2023-06-05T00:26:04;13.40;30.50
30459;DHT22;17254;50.976;7.034;2023-06-05T00:26:10;13.40;30.60
30459;DHT22;17254;50.976;7.034;2023-06-05T00:26:16;13.40;30.70
30459;DHT22;17254;50.976;7.034;2023-06-05T00:26:22;13.40;30.80
30459;DHT22;17254;50.976;7.034;2023-06-05T00:26:30;13.40;31.00
30459;DHT22;17254;50.976;7.034;2023-06-05T00:26:36;13.40;31.20
30459;DHT22;17254;50.976;7.034;2023-06-05T00:26:42;13.40;31.20
30459;DHT22;17254;50.976;7.034;2023-06-05T00:26:48;13.40;31.10
30459;DHT22;17254;50.976;7.034;2023-06-05T00:26:54;13.40;31.10
30459;DHT22;17254;50.976;7.034;2023-06-05T00:27:00;13.40;31.10
30459;DHT22;17254;50.976;7.034;2023-06-05T00:27:07;13.40;31.10
30459;DHT22;17254;50.976;7.034;2023-06-05T00:27:13;13.40;31.10
30459;DHT22;17254;50.976;7.034;2023-06-05T00:27:19;13.40;31.10
30459;DHT22;17254;50.976;7.034;2023-06-05T00:27:27;13.40;31.10
30459;DHT22;17254;50.976;7.034;2023-06-05T00:27:33;13.40;31.10
30459;DHT22;17254;50.976;7.034;2023-06-05T00:27:39;13.40;31.10
30459;DHT22;17254;50.976;7.034;2023-06-05T00:27:46;13.40;31.10
30459;DHT22;17254;50.976;7.034;2023-06-05T00:27:52;13.30;31.10
30459;DHT22;17254;50.976;7.034;2023-06-05T00:27:58;13.30;31.10
30459;DHT22;17254;50.976;7.034;2023-06-05T00:28:04;13.40;31.10
30459;DHT22;17254;50.976;7.034;2023-06-05T00:28:10;13.30;31.20
30459;DHT22;17254;50.976;7.034;2023-06-05T00:28:16;13.30;31.20
30459;DHT22;17254;50.976;7.034;2023-06-05T00:28:23;13.30;31.20
30459;DHT22;17254;50.976;7.034;2023-06-05T00:28:30;13.30;31.20
30459;DHT22;17254;50.976;7.034;2023-06-05T00:28:36;13.30;31.30
30459;DHT22;17254;50.976;7.034;2023-06-05T00:28:45;13.30;31.30
30459;DHT22;17254;50.976;7.034;2023-06-05T00:28:52;13.30;31.40
30459;DHT22;17254;50.976;7.034;2023-06-05T00:28:58;13.30;31.50
30459;DHT22;17254;50.976;7.034;2023-06-05T00:29:04;13.30;31.50
30459;DHT22;17254;50.976;7.034;2023-06-05T00:29:11;13.30;31.50
30459;DHT22;17254;50.976;7.034;2023-06-05T00:29:17;13.30;31.60
30459;DHT22;17254;50.976;7.034;2023-06-05T00:29:23;13.30;31.60
30459;DHT22;17254;50.976;7.034;2023-06-05T00:29:29;13.30;31.80
30459;DHT22;17254;50.976;7.034;2023-06-05T00:29:36;13.30;32.40
30459;DHT22;17254;50.976;7.034;2023-06-05T00:29:42;13.30;31.80
30459;DHT22;17254;50.976;7.034;2023-06-05T00:29:48;13.30;31.80
30459;DHT22;17254;50.976;7.034;2023-06-05T00:29:54;13.30;32.00
30459;DHT22;17254;50.976;7.034;2023-06-05T00:30:01;13.30;32.20
30459;DHT22;17254;50.976;7.034;2023-06-05T00:30:08;13.30;32.30
30459;DHT22;17254;50.976;7.034;2023-06-05T00:30:15;13.30;32.30
30459;DHT22;17254;50.976;7.034;2023-06-05T00:30:21;13.30;32.20
30459;DHT22;17254;50.976;7.034;2023-06-05T00:30:27;13.30;32.10
30459;DHT22;17254;50.976;7.034;2023-06-05T00:30:33;13.30;32.10
30459;DHT22;17254;50.976;7.034;2023-06-05T00:30:39;13.30;32.10
30459;DHT22;17254;50.976;7.034;2023-06-05T00:30:45;13.30;32.10
30459;DHT22;17254;50.976;7.034;2023-06-05T00:30:51;13.30;32.10
30459;DHT22;17254;50.976;7.034;2023-06-05T00:30:57;13.30;32.10
30459;DHT22;17254;50.976;7.034;2023-06-05T00:31:05;13.30;32.10
30459;DHT22;17254;50.976;7.034;2023-06-05T00:31:11;13.30;32.10
30459;DHT22;17254;50.976;7.034;2023-06-05T00:31:18;13.30;32.20
30459;DHT22;17254;50.976;7.034;2023-06-05T00:31:27;13.30;32.20
30459;DHT22;17254;50.976;7.034;2023-06-05T00:31:33;13.30;32.20
30459;DHT22;17254;50.976;7.034;2023-06-05T00:31:40;13.30;32.20
30459;DHT22;17254;50.976;7.034;2023-06-05T00:31:46;13.20;32.10
30459;DHT22;17254;50.976;7.034;2023-06-05T00:31:53;13.20;32.10
30459;DHT22;17254;50.976;7.034;2023-06-05T00:32:00;13.20;32.10
30459;DHT22;17254;50.976;7.034;2023-06-05T00:32:06;13.20;32.30
30459;DHT22;17254;50.976;7.034;2023-06-05T00:32:12;13.30;32.60
30459;DHT22;17254;50.976;7.034;2023-06-05T00:32:18;13.20;32.70
30459;DHT22;17254;50.976;7.034;2023-06-05T00:32:25;13.20;32.80
30459;DHT22;17254;50.976;7.034;2023-06-05T00:32:31;13.30;32.80
30459;DHT22;17254;50.976;7.034;2023-06-05T00:32:37;13.20;32.70
30459;DHT22;17254;50.976;7.034;2023-06-05T00:32:43;13.30;32.80
30459;DHT22;17254;50.976;7.034;2023-06-05T00:32:49;13.20;32.90
30459;DHT22;17254;50.976;7.034;2023-06-05T00:32:56;13.20;32.90
30459;DHT22;17254;50.976;7.034;2023-06-05T00:33:02;13.20;33.00
30459;DHT22;17254;50.976;7.034;2023-06-05T00:33:08;13.20;33.10
30459;DHT22;17254;50.976;7.034;2023-06-05T00:33:14;13.20;33.00
30459;DHT22;17254;50.976;7.034;2023-06-05T00:33:20;13.20;33.00
30459;DHT22;17254;50.976;7.034;2023-06-05T00:33:26;13.30;33.00
30459;DHT22;17254;50.976;7.034;2023-06-05T00:33:36;13.20;33.00
30459;DHT22;17254;50.976;7.034;2023-06-05T00:33:42;13.20;32.90
30459;DHT22;17254;50.976;7.034;2023-06-05T00:33:48;13.20;32.80
30459;DHT22;17254;50.976;7.034;2023-06-05T00:33:54;13.20;33.00
30459;DHT22;17254;50.976;7.034;2023-06-05T00:34:00;13.20;33.20
30459;DHT22;17254;50.976;7.034;2023-06-05T00:34:06;13.20;33.30
30459;DHT22;17254;50.976;7.034;2023-06-05T00:34:12;13.20;33.30
30459;DHT22;17254;50.976;7.034;2023-06-05T00:34:19;13.20;33.40
30459;DHT22;17254;50.976;7.034;2023-06-05T00:34:26;13.20;33.30
30459;DHT22;17254;50.976;7.034;2023-06-05T00:34:32;13.20;33.30
30459;DHT22;17254;50.976;7.034;2023-06-05T00:34:38;13.20;33.20
30459;DHT22;17254;50.976;7.034;2023-06-05T00:34:46;13.20;33.10
30459;DHT22;17254;50.976;7.034;2023-06-05T00:34:52;13.20;33.10
30459;DHT22;17254;50.976;7.034;2023-06-05T00:34:58;13.10;33.00
30459;DHT22;17254;50.976;7.034;2023-06-05T00:35:06;13.10;33.00
30459;DHT22;17254;50.976;7.034;2023-06-05T00:35:13;13.10;33.00
30459;DHT22;17254;50.976;7.034;2023-06-05T00:35:19;13.10;33.10
30459;DHT22;17254;50.976;7.034;2023-06-05T00:35:25;13.10;33.30
30459;DHT22;17254;50.976;7.034;2023-06-05T00:35:31;13.10;33.50
30459;DHT22;17254;50.976;7.034;2023-06-05T00:35:38;13.10;33.70
30459;DHT22;17254;50.976;7.034;2023-06-05T00:35:44;13.10;33.80
30459;DHT22;17254;50.976;7.034;2023-06-05T00:35:50;13.10;33.80
30459;DHT22;17254;50.976;7.034;2023-06-05T00:35:57;13.10;33.80
30459;DHT22;17254;50.976;7.034;2023-06-05T00:36:05;13.10;33.80
30459;DHT22;17254;50.976;7.034;2023-06-05T00:36:12;13.10;33.90
30459;DHT22;17254;50.976;7.034;2023-06-05T00:36:17;13.10;34.10
30459;DHT22;17254;50.976;7.034;2023-06-05T00:36:24;13.10;34.30
30459;DHT22;17254;50.976;7.034;2023-06-05T00:36:30;13.10;34.50
30459;DHT22;17254;50.976;7.034;2023-06-05T00:36:38;13.10;34.60
30459;DHT22;17254;50.976;7.034;2023-06-05T00:36:46;13.10;35.10
30459;DHT22;17254;50.976;7.034;2023-06-05T00:36:56;13.10;34.40
30459;DHT22;17254;50.976;7.034;2023-06-05T00:37:04;13.10;34.30
30459;DHT22;17254;50.976;7.034;2023-06-05T00:37:12;13.10;34.40
30459;DHT22;17254;50.976;7.034;2023-06-05T00:37:19;13.10;34.40
30459;DHT22;17254;50.976;7.034;2023-06-05T00:37:25;13.10;34.30
30459;DHT22;17254;50.976;7.034;2023-06-05T00:37:32;13.10;34.20
30459;DHT22;17254;50.976;7.034;2023-06-05T00:37:39;13.10;34.60
30459;DHT22;17254;50.976;7.034;2023-06-05T00:37:45;13.10;34.00
30459;DHT22;17254;50.976;7.034;2023-06-05T00:37:52;13.10;34.00
30459;DHT22;17254;50.976;7.034;2023-06-05T00:37:58;13.10;34.00
30459;DHT22;17254;50.976;7.034;2023-06-05T00:38:04;13.10;34.00
30459;DHT22;17254;50.976;7.034;2023-06-05T00:38:12;13.10;34.00
30459;DHT22;17254;50.976;7.034;2023-06-05T00:38:18;13.00;34.10
30459;DHT22;17254;50.976;7.034;2023-06-05T00:38:24;13.00;34.50
30459;DHT22;17254;50.976;7.034;2023-06-05T00:38:30;13.10;34.80
30459;DHT22;17254;50.976;7.034;2023-06-05T00:38:36;13.10;35.00
30459;DHT22;17254;50.976;7.034;2023-06-05T00:38:42;13.10;35.00
30459;DHT22;17254;50.976;7.034;2023-06-05T00:38:48;13.10;35.10
30459;DHT22;17254;50.976;7.034;2023-06-05T00:38:54;13.10;35.00
30459;DHT22;17254;50.976;7.034;2023-06-05T00:39:01;13.10;35.00
30459;DHT22;17254;50.976;7.034;2023-06-05T00:39:06;13.10;34.90
30459;DHT22;17254;50.976;7.034;2023-06-05T00:39:12;13.10;35.00
30459;DHT22;17254;50.976;7.034;2023-06-05T00:39:18;13.10;35.60
30459;DHT22;17254;50.976;7.034;2023-06-05T00:39:26;13.10;34.90
30459;DHT22;17254;50.976;7.034;2023-06-05T00:39:32;13.10;34.80
30459;DHT22;17254;50.976;7.034;2023-06-05T00:39:38;13.00;34.70
30459;DHT22;17254;50.976;7.034;2023-06-05T00:39:44;13.00;34.60
30459;DHT22;17254;50.976;7.034;2023-06-05T00:39:50;13.00;34.50
30459;DHT22;17254;50.976;7.034;2023-06-05T00:39:56;13.00;34.50
30459;DHT22;17254;50.976;7.034;2023-06-05T00:40:02;13.00;34.40
30459;DHT22;17254;50.976;7.034;2023-06-05T00:40:09;13.00;34.40
30459;DHT22;17254;50.976;7.034;2023-06-05T00:40:15;13.00;34.40
30459;DHT22;17254;50.976;7.034;2023-06-05T00:40:21;13.00;34.40
30459;DHT22;17254;50.976;7.034;2023-06-05T00:40:27;13.00;34.40
30459;DHT22;17254;50.976;7.034;2023-06-05T00:40:33;12.90;34.40
30459;DHT22;17254;50.976;7.034;2023-06-05T00:40:39;12.90;34.40